createdAt,value
2022-10-05T00:00:01.762Z,13.48
2022-10-05T00:01:36.366Z,12.93
2022-10-05T00:03:11.079Z,11.57
2022-10-05T00:04:44.058Z,14.25
2022-10-05T00:06:17.013Z,11.55
2022-10-05T00:07:53.008Z,11.55
2022-10-05T00:09:25.962Z,12.43
2022-10-05T00:10:58.968Z,12.10
2022-10-05T00:12:31.911Z,11.43
2022-10-05T00:14:13.733Z,12.73
2022-10-05T00:15:46.736Z,12.50
2022-10-05T00:17:21.748Z,12.70
2022-10-05T00:18:55.097Z,12.25
2022-10-05T00:22:00.290Z,11.80
2022-10-05T00:23:34.586Z,10.10
2022-10-05T00:25:13.249Z,12.30
2022-10-05T00:26:47.051Z,13.73
2022-10-05T00:28:26.726Z,11.18
2022-10-05T00:30:03.610Z,15.05
2022-10-05T00:31:38.369Z,14.13
2022-10-05T00:33:10.280Z,13.73
2022-10-05T00:34:44.147Z,16.63
2022-10-05T00:36:17.535Z,14.05
2022-10-05T00:39:27.178Z,12.93
2022-10-05T00:41:09.649Z,9.90
2022-10-05T00:42:52.698Z,12.68
2022-10-05T00:44:32.943Z,16.30
2022-10-05T00:46:11.611Z,10.02
2022-10-05T00:47:54.208Z,11.00
2022-10-05T00:49:45.317Z,12.70
2022-10-05T00:51:26.140Z,11.48
2022-10-05T00:53:10.620Z,15.18
2022-10-05T00:54:50.406Z,10.30
2022-10-05T00:56:35.940Z,12.35
2022-10-05T00:58:19.159Z,12.50
2022-10-05T01:00:02.474Z,13.13
2022-10-05T01:01:40.246Z,13.77
2022-10-05T01:03:20.683Z,11.38
2022-10-05T01:04:57.728Z,14.38
2022-10-05T01:06:42.003Z,12.95
2022-10-05T01:08:26.301Z,12.07
2022-10-05T01:10:07.711Z,13.10
2022-10-05T01:11:49.940Z,11.32
2022-10-05T01:13:33.857Z,12.77
2022-10-05T01:16:49.622Z,10.02
2022-10-05T01:18:29.788Z,12.20
2022-10-05T01:20:23.822Z,12.00
2022-10-05T01:22:06.539Z,13.30
2022-10-05T01:24:14.294Z,11.65
2022-10-05T01:26:00.413Z,12.02
2022-10-05T01:27:55.327Z,16.15
2022-10-05T01:29:35.248Z,12.68
2022-10-05T01:31:17.472Z,14.55
2022-10-05T01:32:59.319Z,12.85
2022-10-05T01:34:39.605Z,12.00
2022-10-05T01:36:20.027Z,11.82
2022-10-05T01:38:06.903Z,14.45
2022-10-05T01:39:46.577Z,13.25
2022-10-05T01:41:30.655Z,15.57
2022-10-05T01:43:11.696Z,13.65
2022-10-05T01:44:52.265Z,16.65
2022-10-05T01:46:33.051Z,16.27
2022-10-05T01:48:10.461Z,14.88
2022-10-05T01:49:49.008Z,14.05
2022-10-05T01:51:32.047Z,14.65
2022-10-05T01:53:15.539Z,16.38
2022-10-05T01:54:57.443Z,14.05
2022-10-05T01:56:40.027Z,14.60
2022-10-05T01:58:23.094Z,22.23
2022-10-05T02:00:07.522Z,27.00
2022-10-05T02:01:46.171Z,22.70
2022-10-05T02:03:22.093Z,17.45
2022-10-05T02:05:02.307Z,14.73
2022-10-05T02:06:41.587Z,19.50
2022-10-05T02:08:18.789Z,16.70
2022-10-05T02:09:56.445Z,16.33
2022-10-05T02:11:29.417Z,13.38
2022-10-05T02:13:07.751Z,12.32
2022-10-05T02:14:44.456Z,12.10
2022-10-05T02:16:20.042Z,14.73
2022-10-05T02:17:58.653Z,15.35
2022-10-05T02:19:36.387Z,17.25
2022-10-05T02:21:09.962Z,16.23
2022-10-05T02:22:47.522Z,19.25
2022-10-05T02:24:25.783Z,16.10
2022-10-05T02:25:59.795Z,16.15
2022-10-05T02:27:37.807Z,15.52
2022-10-05T02:29:14.344Z,18.17
2022-10-05T02:30:53.938Z,13.13
2022-10-05T02:32:30.368Z,12.68
2022-10-05T02:34:27.945Z,14.50
2022-10-05T02:36:03.414Z,14.70
2022-10-05T02:37:43.152Z,15.88
2022-10-05T02:39:24.750Z,14.32
2022-10-05T02:41:08.692Z,14.13
2022-10-05T02:42:50.108Z,12.48
2022-10-05T02:44:29.799Z,13.30
2022-10-05T02:46:14.495Z,15.43
2022-10-05T02:47:59.520Z,18.23
2022-10-05T02:49:42.057Z,13.95
2022-10-05T02:51:22.386Z,11.70
2022-10-05T02:53:09.672Z,13.30
2022-10-05T02:54:50.972Z,14.35
2022-10-05T02:56:30.994Z,14.40
2022-10-05T02:58:07.887Z,11.90
2022-10-05T02:59:47.834Z,12.73
2022-10-05T03:01:26.633Z,13.48
2022-10-05T03:03:05.202Z,20.70
2022-10-05T03:04:43.572Z,13.27
2022-10-05T03:06:22.526Z,13.48
2022-10-05T03:08:02.040Z,13.23
2022-10-05T03:09:40.363Z,15.10
2022-10-05T03:11:23.879Z,13.65
2022-10-05T03:13:05.794Z,12.40
2022-10-05T03:14:49.522Z,15.18
2022-10-05T03:16:38.880Z,12.90
2022-10-05T03:18:20.774Z,12.77
2022-10-05T03:20:13.011Z,15.60
2022-10-05T03:21:56.629Z,16.60
2022-10-05T03:23:43.877Z,13.00
2022-10-05T03:25:37.236Z,13.25
2022-10-05T03:27:20.612Z,13.23
2022-10-05T03:29:02.106Z,15.23
2022-10-05T03:30:37.855Z,14.38
2022-10-05T03:32:22.285Z,15.27
2022-10-05T03:34:01.115Z,14.68
2022-10-05T03:35:44.133Z,14.95
2022-10-05T03:37:22.127Z,16.13
2022-10-05T03:39:03.127Z,15.50
2022-10-05T03:40:40.776Z,15.82
2022-10-05T03:42:25.495Z,13.27
2022-10-05T03:44:28.089Z,15.02
2022-10-05T03:46:08.726Z,12.45
2022-10-05T03:47:50.656Z,13.25
2022-10-05T03:49:32.987Z,16.58
2022-10-05T03:51:12.959Z,19.88
2022-10-05T03:52:49.715Z,16.95
2022-10-05T03:54:28.112Z,15.68
2022-10-05T03:56:07.002Z,17.63
2022-10-05T03:57:42.096Z,14.82
2022-10-05T03:59:19.486Z,15.23
2022-10-05T04:00:58.129Z,17.67
2022-10-05T04:02:34.537Z,16.02
2022-10-05T04:04:14.903Z,12.60
2022-10-05T04:05:51.515Z,16.77
2022-10-05T04:07:33.161Z,28.23
2022-10-05T04:09:12.076Z,23.33
2022-10-05T04:10:49.291Z,21.17
2022-10-05T04:12:26.615Z,16.80
2022-10-05T04:14:04.207Z,21.23
2022-10-05T04:15:43.522Z,14.13
2022-10-05T04:17:19.613Z,15.88
2022-10-05T04:18:57.354Z,16.40
2022-10-05T04:20:39.309Z,17.88
2022-10-05T04:22:19.166Z,18.85
2022-10-05T04:23:59.825Z,18.00
2022-10-05T04:25:38.180Z,20.88
2022-10-05T04:27:17.371Z,14.73
2022-10-05T04:28:55.523Z,12.63
2022-10-05T04:30:28.664Z,13.02
2022-10-05T04:32:22.931Z,17.77
2022-10-05T04:34:10.311Z,13.13
2022-10-05T04:36:14.009Z,15.23
2022-10-05T04:37:59.146Z,16.40
2022-10-05T04:39:42.343Z,15.95
2022-10-05T04:41:31.448Z,15.63
2022-10-05T04:43:10.692Z,12.95
2022-10-05T04:44:59.458Z,12.43
2022-10-05T04:46:45.421Z,16.20
2022-10-05T04:48:45.571Z,16.27
2022-10-05T04:50:31.146Z,15.48
2022-10-05T04:52:15.956Z,16.33
2022-10-05T04:53:55.373Z,17.10
2022-10-05T04:55:33.857Z,14.45
2022-10-05T04:57:12.913Z,15.35
2022-10-05T04:59:00.650Z,14.77
2022-10-05T05:00:47.407Z,16.95
2022-10-05T05:02:27.170Z,18.95
2022-10-05T05:04:23.730Z,16.23
2022-10-05T05:06:17.284Z,15.00
2022-10-05T05:07:59.647Z,13.35
2022-10-05T05:10:03.684Z,17.90
2022-10-05T05:11:46.383Z,16.63
2022-10-05T05:13:39.066Z,16.77
2022-10-05T05:15:27.076Z,15.32
2022-10-05T05:17:18.490Z,17.60
2022-10-05T05:19:07.034Z,14.85
2022-10-05T05:20:52.912Z,16.90
2022-10-05T05:22:36.393Z,18.63
2022-10-05T05:24:20.397Z,16.13
2022-10-05T05:26:02.308Z,15.88
2022-10-05T05:27:47.974Z,17.02
2022-10-05T05:29:27.541Z,14.88
2022-10-05T05:31:11.726Z,17.63
2022-10-05T05:33:02.371Z,17.50
2022-10-05T05:34:47.592Z,18.75
2022-10-05T05:36:45.130Z,21.20
2022-10-05T05:38:26.985Z,16.95
2022-10-05T05:40:09.670Z,16.13
2022-10-05T05:41:49.578Z,18.33
2022-10-05T05:43:27.706Z,15.43
2022-10-05T05:45:08.564Z,16.25
2022-10-05T05:47:02.867Z,16.15
2022-10-05T05:48:39.517Z,17.05
2022-10-05T05:50:32.185Z,16.42
2022-10-05T05:52:11.669Z,15.73
2022-10-05T05:53:46.590Z,17.13
2022-10-05T05:55:29.923Z,18.67
2022-10-05T05:58:49.855Z,18.92
2022-10-05T06:00:26.425Z,16.40
2022-10-05T06:02:07.048Z,17.75
2022-10-05T06:03:45.125Z,16.83
2022-10-05T06:05:34.701Z,19.15
2022-10-05T06:07:12.206Z,15.98
2022-10-05T06:08:48.614Z,15.70
2022-10-05T06:10:31.873Z,14.48
2022-10-05T06:12:09.492Z,18.73
2022-10-05T06:13:44.191Z,16.27
2022-10-05T06:15:30.917Z,15.30
2022-10-05T06:17:11.276Z,15.45
2022-10-05T06:18:49.251Z,17.75
2022-10-05T06:20:34.569Z,18.77
2022-10-05T06:22:13.024Z,15.20
2022-10-05T06:23:51.638Z,22.25
2022-10-05T06:25:36.753Z,16.75
2022-10-05T06:27:25.574Z,16.70
2022-10-05T06:29:03.061Z,17.55
2022-10-05T06:30:50.109Z,16.73
2022-10-05T06:32:30.154Z,16.48
2022-10-05T06:34:14.591Z,16.60
2022-10-05T06:35:58.783Z,16.48
2022-10-05T06:37:49.423Z,16.77
2022-10-05T06:39:43.164Z,19.80
2022-10-05T06:41:26.624Z,19.58
2022-10-05T06:43:15.621Z,17.35
2022-10-05T06:44:56.719Z,19.45
2022-10-05T06:46:33.796Z,17.05
2022-10-05T06:48:17.304Z,16.35
2022-10-05T06:49:57.506Z,17.35
2022-10-05T06:51:38.652Z,16.98
2022-10-05T06:53:28.267Z,15.82
2022-10-05T06:55:17.598Z,17.50
2022-10-05T06:57:00.857Z,19.85
2022-10-05T06:58:49.195Z,18.77
2022-10-05T07:00:24.834Z,21.30
2022-10-05T07:02:07.094Z,18.65
2022-10-05T07:03:49.916Z,16.33
2022-10-05T07:05:46.575Z,17.33
2022-10-05T07:07:28.212Z,16.38
2022-10-05T07:09:15.462Z,20.08
2022-10-05T07:11:05.838Z,15.55
2022-10-05T07:12:57.668Z,16.00
2022-10-05T07:14:51.500Z,17.40
2022-10-05T07:16:33.772Z,18.08
2022-10-05T07:18:33.129Z,16.33
2022-10-05T07:20:17.341Z,16.90
2022-10-05T07:22:01.723Z,19.25
2022-10-05T07:23:49.103Z,16.92
2022-10-05T07:25:28.704Z,18.27
2022-10-05T07:27:10.895Z,17.50
2022-10-05T07:28:50.125Z,17.65
2022-10-05T07:30:23.349Z,14.93
2022-10-05T07:32:05.610Z,14.88
2022-10-05T07:33:45.858Z,16.95
2022-10-05T07:35:43.284Z,15.02
2022-10-05T07:37:38.230Z,16.63
2022-10-05T07:39:17.971Z,15.18
2022-10-05T07:40:57.091Z,17.08
2022-10-05T07:42:50.469Z,16.38
2022-10-05T07:44:33.257Z,16.45
2022-10-05T07:46:14.541Z,16.35
2022-10-05T07:47:54.075Z,18.10
2022-10-05T07:49:35.534Z,17.73
2022-10-05T07:51:18.904Z,15.52
2022-10-05T07:52:58.040Z,17.75
2022-10-05T07:54:45.295Z,15.98
2022-10-05T07:56:26.716Z,15.55
2022-10-05T07:58:13.069Z,17.88
2022-10-05T07:59:56.699Z,15.57
2022-10-05T08:01:33.306Z,18.30
2022-10-05T08:03:12.070Z,18.75
2022-10-05T08:04:52.345Z,15.68
2022-10-05T08:06:45.033Z,19.98
2022-10-05T08:08:25.504Z,16.63
2022-10-05T08:10:04.628Z,15.25
2022-10-05T08:11:44.626Z,18.73
2022-10-05T08:13:23.024Z,15.00
2022-10-05T08:15:01.180Z,15.90
2022-10-05T08:16:38.816Z,14.93
2022-10-05T08:18:17.671Z,13.40
2022-10-05T08:19:57.628Z,14.38
2022-10-05T08:21:36.275Z,15.95
2022-10-05T08:23:19.393Z,14.38
2022-10-05T08:25:00.010Z,15.35
2022-10-05T08:26:40.056Z,17.35
2022-10-05T08:28:18.504Z,16.33
2022-10-05T08:29:59.102Z,13.70
2022-10-05T08:31:37.274Z,17.75
2022-10-05T08:33:17.809Z,15.70
2022-10-05T08:34:56.588Z,14.68
2022-10-05T08:36:44.815Z,14.32
2022-10-05T08:38:20.395Z,15.50
2022-10-05T08:39:57.000Z,16.73
2022-10-05T08:42:09.272Z,15.10
2022-10-05T08:44:05.580Z,15.25
2022-10-05T08:46:01.649Z,18.67
2022-10-05T08:47:58.686Z,16.02
2022-10-05T08:50:19.685Z,15.35
2022-10-05T08:52:24.016Z,15.27
2022-10-05T08:54:26.619Z,15.40
2022-10-05T08:56:28.497Z,13.38
2022-10-05T08:58:26.947Z,13.18
2022-10-05T09:00:17.770Z,15.23
2022-10-05T09:02:18.298Z,15.18
2022-10-05T09:04:20.619Z,14.07
2022-10-05T09:06:23.137Z,14.32
2022-10-05T09:08:24.265Z,16.17
2022-10-05T09:10:36.995Z,10.98
2022-10-05T09:12:24.665Z,11.65
2022-10-05T09:14:24.974Z,13.73
2022-10-05T09:16:19.402Z,13.70
2022-10-05T09:18:22.517Z,13.85
2022-10-05T09:20:23.980Z,11.73
2022-10-05T09:21:58.652Z,13.50
2022-10-05T09:23:40.028Z,13.23
2022-10-05T09:25:22.559Z,10.95
2022-10-05T09:27:15.035Z,10.57
2022-10-05T09:29:09.342Z,16.10
2022-10-05T09:32:50.300Z,13.38
2022-10-05T09:34:57.128Z,12.95
2022-10-05T09:37:13.979Z,11.27
2022-10-05T09:39:20.191Z,11.75
2022-10-05T09:41:33.216Z,17.42
2022-10-05T09:43:18.835Z,18.90
2022-10-05T09:45:21.339Z,14.02
2022-10-05T09:47:27.670Z,13.70
2022-10-05T09:49:17.503Z,16.20
2022-10-05T09:51:37.661Z,11.70
2022-10-05T09:53:43.173Z,13.48
2022-10-05T09:55:43.426Z,13.82
2022-10-05T09:57:59.271Z,18.67
2022-10-05T10:00:03.687Z,11.20
2022-10-05T10:01:51.813Z,11.00
2022-10-05T10:04:10.097Z,12.35
2022-10-05T10:06:12.308Z,10.13
2022-10-05T10:08:05.656Z,12.13
2022-10-05T10:09:49.854Z,11.98
2022-10-05T10:11:50.021Z,9.85
2022-10-05T10:13:49.212Z,8.95
2022-10-05T10:15:45.062Z,10.05
2022-10-05T10:17:44.174Z,10.93
2022-10-05T10:19:43.302Z,9.90
2022-10-05T10:21:34.682Z,10.00
2022-10-05T10:23:33.657Z,10.65
2022-10-05T10:25:28.479Z,13.07
2022-10-05T10:27:27.450Z,10.20
2022-10-05T10:31:17.915Z,8.88
2022-10-05T10:33:30.596Z,10.38
2022-10-05T10:35:15.190Z,10.93
2022-10-05T10:37:11.546Z,10.07
2022-10-05T10:38:58.401Z,9.45
2022-10-05T10:40:38.803Z,8.55
2022-10-05T10:42:28.868Z,8.70
2022-10-05T10:44:38.102Z,9.60
2022-10-05T10:46:22.193Z,10.50
2022-10-05T10:48:57.414Z,9.45
2022-10-05T10:51:13.578Z,11.25
2022-10-05T10:53:10.069Z,10.95
2022-10-05T10:55:17.682Z,14.38
2022-10-05T10:57:04.396Z,13.60
2022-10-05T10:59:08.940Z,12.27
2022-10-05T11:00:54.409Z,9.60
2022-10-05T11:03:14.861Z,9.27
2022-10-05T11:05:08.060Z,10.63
2022-10-05T11:07:24.518Z,11.30
2022-10-05T11:09:25.106Z,8.18
2022-10-05T11:11:40.181Z,10.30
2022-10-05T11:15:24.009Z,8.98
2022-10-05T11:17:22.341Z,8.20
2022-10-05T11:19:39.902Z,8.77
2022-10-05T11:21:25.643Z,8.05
2022-10-05T11:23:07.166Z,9.90
2022-10-05T11:25:04.681Z,9.13
2022-10-05T11:27:07.498Z,9.15
2022-10-05T11:29:17.817Z,10.65
2022-10-05T11:31:19.237Z,9.63
2022-10-05T11:33:22.447Z,7.60
2022-10-05T11:35:16.400Z,10.35
2022-10-05T11:37:32.261Z,7.72
2022-10-05T11:39:36.775Z,7.95
2022-10-05T11:41:28.338Z,10.27
2022-10-05T11:43:49.825Z,9.52
2022-10-05T11:45:26.551Z,7.53
2022-10-05T11:47:04.959Z,7.10
2022-10-05T11:48:57.803Z,9.32
2022-10-05T11:50:38.400Z,8.27
2022-10-05T11:52:17.876Z,8.68
2022-10-05T11:53:58.525Z,10.45
2022-10-05T11:55:36.803Z,9.93
2022-10-05T11:57:14.602Z,8.32
2022-10-05T11:58:54.714Z,8.75
2022-10-05T12:00:34.235Z,9.57
2022-10-05T12:02:42.799Z,8.55
2022-10-05T12:04:20.892Z,10.23
2022-10-05T12:06:13.825Z,13.10
2022-10-05T12:08:01.214Z,9.38
2022-10-05T12:10:01.505Z,9.80
2022-10-05T12:11:54.318Z,11.80
2022-10-05T12:13:40.669Z,8.77
2022-10-05T12:16:58.958Z,8.05
2022-10-05T12:18:54.656Z,7.68
2022-10-05T12:20:34.934Z,6.80
2022-10-05T12:22:15.965Z,7.60
2022-10-05T12:23:55.868Z,8.45
2022-10-05T12:25:33.238Z,12.35
2022-10-05T12:27:12.786Z,13.18
2022-10-05T12:28:50.914Z,7.00
2022-10-05T12:30:33.767Z,7.32
2022-10-05T12:32:13.355Z,7.68
2022-10-05T12:33:58.489Z,8.27
2022-10-05T12:35:47.754Z,8.70
2022-10-05T12:37:41.924Z,7.40
2022-10-05T12:39:20.131Z,6.75
2022-10-05T12:40:59.634Z,8.90
2022-10-05T12:42:42.054Z,7.85
2022-10-05T12:44:20.103Z,7.07
2022-10-05T12:46:07.247Z,5.82
2022-10-05T12:47:53.910Z,6.05
2022-10-05T12:50:06.864Z,9.90
2022-10-05T12:51:44.079Z,8.95
2022-10-05T12:53:30.005Z,7.30
2022-10-05T12:55:11.394Z,7.72
2022-10-05T12:56:49.774Z,8.13
2022-10-05T12:58:31.461Z,7.25
2022-10-05T13:00:09.494Z,7.60
2022-10-05T13:01:48.760Z,7.35
2022-10-05T13:03:26.552Z,7.63
2022-10-05T13:05:14.312Z,7.20
2022-10-05T13:06:58.381Z,9.65
2022-10-05T13:08:42.767Z,7.50
2022-10-05T13:10:28.649Z,8.30
2022-10-05T13:12:07.183Z,7.93
2022-10-05T13:13:52.930Z,7.80
2022-10-05T13:15:32.332Z,8.98
2022-10-05T13:17:17.104Z,7.93
2022-10-05T13:19:06.421Z,7.22
2022-10-05T13:20:46.901Z,7.32
2022-10-05T13:22:32.166Z,8.63
2022-10-05T13:24:13.321Z,6.30
2022-10-05T13:25:55.137Z,8.27
2022-10-05T13:27:31.357Z,7.88
2022-10-05T13:29:13.808Z,5.95
2022-10-05T13:30:54.173Z,6.13
2022-10-05T13:32:32.064Z,6.97
2022-10-05T13:34:18.742Z,7.72
2022-10-05T13:36:02.643Z,6.32
2022-10-05T13:37:44.976Z,5.25
2022-10-05T13:39:37.567Z,5.57
2022-10-05T13:41:17.660Z,6.47
2022-10-05T13:42:59.630Z,5.85
2022-10-05T13:44:39.700Z,6.82
2022-10-05T13:46:24.433Z,6.72
2022-10-05T13:48:12.997Z,7.40
2022-10-05T13:49:51.454Z,7.00
2022-10-05T13:51:30.402Z,7.00
2022-10-05T13:53:17.133Z,7.57
2022-10-05T13:54:59.098Z,7.57
2022-10-05T13:56:35.262Z,7.43
2022-10-05T13:58:16.578Z,7.28
2022-10-05T13:59:54.932Z,7.95
2022-10-05T14:01:36.117Z,8.23
2022-10-05T14:03:27.474Z,7.18
2022-10-05T14:05:01.983Z,7.78
2022-10-05T14:06:38.090Z,8.45
2022-10-05T14:08:18.279Z,9.25
2022-10-05T14:09:51.375Z,8.52
2022-10-05T14:11:31.237Z,7.68
2022-10-05T14:13:18.877Z,7.88
2022-10-05T14:14:53.908Z,7.90
2022-10-05T14:16:27.036Z,7.22
2022-10-05T14:19:42.161Z,6.07
2022-10-05T14:21:23.520Z,6.40
2022-10-05T14:23:01.147Z,8.55
2022-10-05T14:24:44.244Z,5.65
2022-10-05T14:26:33.076Z,6.35
2022-10-05T14:28:28.421Z,8.98
2022-10-05T14:30:18.047Z,9.48
2022-10-05T14:31:55.280Z,6.93
2022-10-05T14:33:30.768Z,8.32
2022-10-05T14:35:14.787Z,7.22
2022-10-05T14:36:56.187Z,4.65
2022-10-05T14:38:33.986Z,4.35
2022-10-05T14:40:23.476Z,5.47
2022-10-05T14:41:56.612Z,4.20
2022-10-05T14:45:14.665Z,5.85
2022-10-05T14:46:55.252Z,5.30
2022-10-05T14:48:30.959Z,6.82
2022-10-05T14:50:21.284Z,7.88
2022-10-05T14:51:55.161Z,7.53
2022-10-05T14:53:41.352Z,6.93
2022-10-05T14:55:41.470Z,8.10
2022-10-05T14:57:25.187Z,7.70
2022-10-05T14:59:23.290Z,7.55
2022-10-05T15:01:02.823Z,9.15
2022-10-05T15:03:04.913Z,8.75
2022-10-05T15:04:43.702Z,9.45
2022-10-05T15:06:26.968Z,5.70
2022-10-05T15:08:10.838Z,9.55
2022-10-05T15:09:56.858Z,9.70
2022-10-05T15:11:38.694Z,8.60
2022-10-05T15:13:16.915Z,6.95
2022-10-05T15:14:52.969Z,8.13
2022-10-05T15:16:30.994Z,8.50
2022-10-05T15:18:14.981Z,15.02
2022-10-05T15:19:59.813Z,7.38
2022-10-05T15:21:54.556Z,7.82
2022-10-05T15:23:36.345Z,7.55
2022-10-05T15:25:16.016Z,7.30
2022-10-05T15:26:51.457Z,8.43
2022-10-05T15:28:38.820Z,6.90
2022-10-05T15:30:15.605Z,7.38
2022-10-05T15:31:57.480Z,6.25
2022-10-05T15:33:35.467Z,7.35
2022-10-05T15:35:36.027Z,8.57
2022-10-05T15:37:16.143Z,6.95
2022-10-05T15:39:00.524Z,7.60
2022-10-05T15:40:40.599Z,8.07
2022-10-05T15:42:17.371Z,7.07
2022-10-05T15:44:10.486Z,7.55
2022-10-05T15:45:53.712Z,7.20
2022-10-05T15:47:44.620Z,6.63
2022-10-05T15:49:26.385Z,10.60
2022-10-05T15:51:07.101Z,7.15
2022-10-05T15:52:48.315Z,8.00
2022-10-05T15:54:42.291Z,7.43
2022-10-05T15:56:24.206Z,10.10
2022-10-05T15:58:28.739Z,8.57
2022-10-05T16:00:04.965Z,6.32
2022-10-05T16:01:48.264Z,9.48
2022-10-05T16:03:27.200Z,7.20
2022-10-05T16:05:09.034Z,11.13
2022-10-05T16:07:06.876Z,7.28
2022-10-05T16:08:58.497Z,10.68
2022-10-05T16:10:35.002Z,9.38
2022-10-05T16:12:19.039Z,8.70
2022-10-05T16:14:03.418Z,7.15
2022-10-05T16:15:42.630Z,7.97
2022-10-05T16:17:28.201Z,8.10
2022-10-05T16:19:08.055Z,7.47
2022-10-05T16:20:51.029Z,8.80
2022-10-05T16:22:37.902Z,10.90
2022-10-05T16:24:25.740Z,8.57
2022-10-05T16:26:13.160Z,11.15
2022-10-05T16:28:05.357Z,7.00
2022-10-05T16:29:45.443Z,9.25
2022-10-05T16:31:23.137Z,9.88
2022-10-05T16:33:05.702Z,12.18
2022-10-05T16:34:54.202Z,11.40
2022-10-05T16:36:44.400Z,10.77
2022-10-05T16:38:28.305Z,10.05
2022-10-05T16:40:07.035Z,8.85
2022-10-05T16:41:47.523Z,9.50
2022-10-05T16:43:30.694Z,10.38
2022-10-05T16:45:24.596Z,8.68
2022-10-05T16:47:05.114Z,7.38
2022-10-05T16:48:48.500Z,10.63
2022-10-05T16:50:27.290Z,9.48
2022-10-05T16:52:01.563Z,9.80
2022-10-05T16:53:40.708Z,6.68
2022-10-05T16:55:21.778Z,6.63
2022-10-05T16:56:57.673Z,8.07
2022-10-05T16:58:43.518Z,9.02
2022-10-05T17:00:21.603Z,7.60
2022-10-05T17:02:05.647Z,8.35
2022-10-05T17:03:58.166Z,8.57
2022-10-05T17:05:55.727Z,9.25
2022-10-05T17:07:53.145Z,9.18
2022-10-05T17:09:53.121Z,7.60
2022-10-05T17:11:39.151Z,7.07
2022-10-05T17:13:28.525Z,8.73
2022-10-05T17:15:18.937Z,12.45
2022-10-05T17:17:05.236Z,7.03
2022-10-05T17:19:19.218Z,9.85
2022-10-05T17:20:58.923Z,9.25
2022-10-05T17:22:36.042Z,10.35
2022-10-05T17:24:30.342Z,9.40
2022-10-05T17:26:33.395Z,6.45
2022-10-05T17:28:24.723Z,8.35
2022-10-05T17:30:23.508Z,10.02
2022-10-05T17:32:10.674Z,8.95
2022-10-05T17:34:26.483Z,8.27
2022-10-05T17:36:18.907Z,11.30
2022-10-05T17:38:14.096Z,10.27
2022-10-05T17:39:50.889Z,10.23
2022-10-05T17:41:26.257Z,9.02
2022-10-05T17:43:01.301Z,8.60
2022-10-05T17:44:34.357Z,12.40
2022-10-05T17:46:09.646Z,11.18
2022-10-05T17:47:59.708Z,9.13
2022-10-05T17:50:15.764Z,10.70
2022-10-05T17:52:39.359Z,8.45
2022-10-05T17:54:37.803Z,8.68
2022-10-05T17:56:10.787Z,11.02
2022-10-05T17:57:42.728Z,10.07
2022-10-05T17:59:40.070Z,9.45
2022-10-05T18:01:19.896Z,11.90
2022-10-05T18:02:56.427Z,9.93
2022-10-05T18:04:39.901Z,9.50
2022-10-05T18:06:34.203Z,11.23
2022-10-05T18:10:25.556Z,9.73
2022-10-05T18:12:25.308Z,11.10
2022-10-05T18:14:18.782Z,11.88
2022-10-05T18:15:53.291Z,8.73
2022-10-05T18:17:38.219Z,9.45
2022-10-05T18:19:17.184Z,11.02
2022-10-05T18:21:30.409Z,14.00
2022-10-05T18:23:35.243Z,10.63
2022-10-05T18:25:18.405Z,12.82
2022-10-05T18:27:01.363Z,12.40
2022-10-05T18:28:47.988Z,13.30
2022-10-05T18:30:23.293Z,12.23
2022-10-05T18:32:05.513Z,11.68
2022-10-05T18:33:49.236Z,11.80
2022-10-05T18:37:14.838Z,9.60
2022-10-05T18:39:01.963Z,10.60
2022-10-05T18:40:43.163Z,12.95
2022-10-05T18:42:25.370Z,11.15
2022-10-05T18:44:08.890Z,11.82
2022-10-05T18:45:55.869Z,11.23
2022-10-05T18:47:38.366Z,12.00
2022-10-05T18:49:26.768Z,10.77
2022-10-05T18:51:04.730Z,10.40
2022-10-05T18:52:50.629Z,11.05
2022-10-05T18:54:41.639Z,12.57
2022-10-05T18:56:22.586Z,10.80
2022-10-05T18:58:14.179Z,9.70
2022-10-05T18:59:55.452Z,10.32
2022-10-05T19:02:07.792Z,10.10
2022-10-05T19:03:54.771Z,8.82
2022-10-05T19:05:48.026Z,9.13
2022-10-05T19:07:32.995Z,9.55
2022-10-05T19:09:18.163Z,10.68
2022-10-05T19:10:56.064Z,9.52
2022-10-05T19:12:41.634Z,8.77
2022-10-05T19:14:24.260Z,9.48
2022-10-05T19:16:09.366Z,11.48
2022-10-05T19:18:10.317Z,9.40
2022-10-05T19:20:00.885Z,8.57
2022-10-05T19:21:39.370Z,11.55
2022-10-05T19:23:30.630Z,11.27
2022-10-05T19:25:21.313Z,10.23
2022-10-05T19:27:04.365Z,13.18
2022-10-05T19:28:43.402Z,10.68
2022-10-05T19:30:21.233Z,9.73
2022-10-05T19:32:02.434Z,9.38
2022-10-05T19:33:51.073Z,9.27
2022-10-05T19:35:33.841Z,9.32
2022-10-05T19:37:13.927Z,13.30
2022-10-05T19:38:58.725Z,8.98
2022-10-05T19:40:39.762Z,11.90
2022-10-05T19:42:44.601Z,11.50
2022-10-05T19:44:28.713Z,10.57
2022-10-05T19:46:07.879Z,11.73
2022-10-05T19:47:50.133Z,9.70
2022-10-05T19:49:58.990Z,10.55
2022-10-05T19:51:34.455Z,11.15
2022-10-05T19:53:14.128Z,9.90
2022-10-05T19:54:49.637Z,11.43
2022-10-05T19:56:25.381Z,11.40
2022-10-05T19:58:00.453Z,11.43
2022-10-05T19:59:34.643Z,14.02
2022-10-05T20:01:07.837Z,11.85
2022-10-05T20:02:42.124Z,11.43
2022-10-05T20:04:16.348Z,14.73
2022-10-05T20:05:50.376Z,10.57
2022-10-05T20:07:24.659Z,12.32
2022-10-05T20:09:02.051Z,11.25
2022-10-05T20:10:35.143Z,14.43
2022-10-05T20:12:07.145Z,10.63
2022-10-05T20:13:41.851Z,11.60
2022-10-05T20:15:37.482Z,11.27
2022-10-05T20:17:35.820Z,13.35
2022-10-05T20:19:45.336Z,11.25
2022-10-05T20:21:41.319Z,11.63
2022-10-05T20:23:27.912Z,12.05
2022-10-05T20:25:02.490Z,11.40
2022-10-05T20:26:56.963Z,10.15
2022-10-05T20:28:33.543Z,12.63
2022-10-05T20:30:08.396Z,11.32
2022-10-05T20:31:40.359Z,11.05
2022-10-05T20:33:14.715Z,19.55
2022-10-05T20:34:49.354Z,9.73
2022-10-05T20:36:21.348Z,13.27
2022-10-05T20:37:54.403Z,10.23
2022-10-05T20:39:30.459Z,12.60
2022-10-05T20:41:03.321Z,11.10
2022-10-05T20:42:36.244Z,10.82
2022-10-05T20:44:09.064Z,11.80
2022-10-05T20:45:43.265Z,12.18
2022-10-05T20:47:16.189Z,13.70
2022-10-05T20:48:49.136Z,10.75
2022-10-05T20:50:22.198Z,12.02
2022-10-05T20:51:55.900Z,10.57
2022-10-05T20:53:28.910Z,10.27
2022-10-05T20:55:03.133Z,11.10
2022-10-05T20:56:36.163Z,13.85
2022-10-05T20:58:10.999Z,12.00
2022-10-05T20:59:43.999Z,12.38
2022-10-05T21:01:16.493Z,14.30
2022-10-05T21:02:49.430Z,14.55
2022-10-05T21:04:24.027Z,12.70
2022-10-05T21:05:56.930Z,13.10
2022-10-05T21:07:29.813Z,14.18
2022-10-05T21:09:01.735Z,12.65
2022-10-05T21:10:36.863Z,14.18
2022-10-05T21:12:09.895Z,13.15
2022-10-05T21:13:44.704Z,15.70
2022-10-05T21:15:17.840Z,16.85
2022-10-05T21:16:50.923Z,14.68
2022-10-05T21:18:24.183Z,16.52
2022-10-05T21:21:29.951Z,13.73
2022-10-05T21:23:02.858Z,12.30
2022-10-05T21:24:36.739Z,12.80
2022-10-05T21:26:11.683Z,12.55
2022-10-05T21:27:44.723Z,14.43
2022-10-05T21:29:17.631Z,12.52
2022-10-05T21:30:50.497Z,16.38
2022-10-05T21:32:23.372Z,13.18
2022-10-05T21:33:55.515Z,13.90
2022-10-05T21:35:28.384Z,14.75
2022-10-05T21:37:01.220Z,16.15
2022-10-05T21:38:34.081Z,15.57
2022-10-05T21:40:07.679Z,13.50
2022-10-05T21:41:41.841Z,15.35
2022-10-05T21:43:15.136Z,15.38
2022-10-05T21:46:22.903Z,15.27
2022-10-05T21:47:56.833Z,13.93
2022-10-05T21:49:29.089Z,16.73
2022-10-05T21:51:03.176Z,16.13
2022-10-05T21:52:36.584Z,15.77
2022-10-05T21:54:12.664Z,16.15
2022-10-05T21:55:48.453Z,17.60
2022-10-05T21:57:22.771Z,15.35
2022-10-05T21:58:55.966Z,14.90
2022-10-05T22:00:28.908Z,17.23
2022-10-05T22:02:02.362Z,14.65
2022-10-05T22:03:34.322Z,13.70
2022-10-05T22:05:07.646Z,14.25
2022-10-05T22:08:20.742Z,14.68
2022-10-05T22:09:53.582Z,12.75
2022-10-05T22:11:27.946Z,16.02
2022-10-05T22:13:03.229Z,13.40
2022-10-05T22:14:36.060Z,17.60
2022-10-05T22:16:08.016Z,12.90
2022-10-05T22:17:42.156Z,14.25
2022-10-05T22:19:19.046Z,13.75
2022-10-05T22:20:53.113Z,12.93
2022-10-05T22:22:26.374Z,11.98
2022-10-05T22:24:00.180Z,14.63
2022-10-05T22:25:34.063Z,14.25
2022-10-05T22:27:07.105Z,11.88
2022-10-05T22:28:42.538Z,11.93
2022-10-05T22:30:15.760Z,12.05
2022-10-05T22:31:49.444Z,14.98
2022-10-05T22:33:21.355Z,14.00
2022-10-05T22:34:54.288Z,11.90
2022-10-05T22:36:27.721Z,14.57
2022-10-05T22:38:00.551Z,12.48
2022-10-05T22:39:33.767Z,13.18
2022-10-05T22:41:10.093Z,12.38
2022-10-05T22:42:43.047Z,10.80
2022-10-05T22:44:16.874Z,13.10
2022-10-05T22:45:50.130Z,11.35
2022-10-05T22:48:55.633Z,11.07
2022-10-05T22:50:27.546Z,13.68
2022-10-05T22:52:00.421Z,12.10
2022-10-05T22:53:33.431Z,14.02
2022-10-05T22:55:07.351Z,12.65
2022-10-05T22:56:40.184Z,11.40
2022-10-05T22:58:12.124Z,10.48
2022-10-05T22:59:46.550Z,12.05